Time;durP1;ratioP1;P1;durP2;ratioP2;P2;SDS_P1;SDS_P2;PMS_P1;PMS_P2;Temp;Humidity;BMP_temperature;BMP_pressure;BME280_temperature;BME280_humidity;BME280_pressure;Samples;Min_cycle;Max_cycle;Signal;HPM_P1;HPM_P2
2024/01/05 00:01:28;;;;;;;17.90;8.90;;;7.50;99.90;;;;;;5081873;28;20190;-87
2024/01/05 00:03:53;;;;;;;10.80;6.40;;;7.70;99.90;;;;;;5062707;28;20685;-88
2024/01/05 00:06:20;;;;;;;13.13;6.80;;;7.50;99.90;;;;;;5094716;28;20430;-88
2024/01/05 00:08:45;;;;;;;12.53;6.67;;;7.50;99.90;;;;;;5099413;28;20221;-88
2024/01/05 00:11:18;;;;;;;14.83;6.60;;;7.60;99.90;;;;;;5083052;28;20197;-87
2024/01/05 00:13:44;;;;;;;15.53;6.67;;;7.40;99.90;;;;;;5086331;28;20227;-88
2024/01/05 00:16:28;;;;;;;10.07;7.00;;;7.40;99.90;;;;;;5084409;28;20192;-88
2024/01/05 00:18:54;;;;;;;11.27;6.40;;;7.40;99.90;;;;;;5089074;28;20216;-88
2024/01/05 00:21:20;;;;;;;10.40;7.00;;;7.30;99.90;;;;;;5080294;28;20655;-88
2024/01/05 00:23:47;;;;;;;12.43;6.13;;;7.30;99.90;;;;;;5061925;28;20261;-87
2024/01/05 00:26:13;;;;;;;20.00;7.60;;;7.60;99.90;;;;;;5062951;28;20238;-88
2024/01/05 00:28:40;;;;;;;12.67;6.53;;;7.20;99.90;;;;;;5062245;28;20527;-88
2024/01/05 00:31:08;;;;;;;11.63;6.03;;;7.20;99.90;;;;;;5062124;28;20174;-88
2024/01/05 00:33:35;;;;;;;13.37;6.33;;;7.20;99.90;;;;;;5062723;28;20170;-88
2024/01/05 00:36:02;;;;;;;15.57;6.60;;;7.20;99.90;;;;;;5061930;28;20643;-88
2024/01/05 00:38:28;;;;;;;13.83;6.60;;;7.10;99.90;;;;;;5080387;28;20753;-88
2024/01/05 00:40:53;;;;;;;14.90;6.63;;;7.20;99.90;;;;;;5062524;28;20206;-88
2024/01/05 00:43:19;;;;;;;12.77;6.23;;;7.10;99.90;;;;;;5062220;28;20198;-88
2024/01/05 00:45:45;;;;;;;12.27;5.90;;;7.00;99.90;;;;;;5067639;28;20174;-88
2024/01/05 00:48:10;;;;;;;15.43;5.77;;;7.10;99.90;;;;;;5096446;28;20241;-88
2024/01/05 00:50:36;;;;;;;21.17;6.03;;;7.30;99.90;;;;;;5082514;28;20240;-88
2024/01/05 00:53:02;;;;;;;20.53;7.00;;;7.00;99.90;;;;;;5082877;28;20522;-88
2024/01/05 00:55:27;;;;;;;14.47;6.47;;;6.90;99.90;;;;;;5081779;28;20221;-88
2024/01/05 00:57:53;;;;;;;13.57;5.80;;;7.00;99.90;;;;;;5082195;28;20197;-88
2024/01/05 01:00:18;;;;;;;13.13;6.40;;;6.90;99.90;;;;;;5091727;28;20174;-88
2024/01/05 01:02:44;;;;;;;11.70;5.77;;;6.80;99.90;;;;;;5061923;28;20290;-88
2024/01/05 01:05:11;;;;;;;15.23;5.93;;;6.90;99.90;;;;;;5062862;28;20174;-88
2024/01/05 01:07:40;;;;;;;13.23;5.90;;;6.90;99.90;;;;;;5062074;28;20182;-88
2024/01/05 01:10:06;;;;;;;17.37;6.80;;;6.90;99.90;;;;;;5062764;28;20174;-88
2024/01/05 01:12:31;;;;;;;13.33;6.10;;;6.80;99.90;;;;;;5062069;28;20189;-88
2024/01/05 01:14:57;;;;;;;11.23;5.60;;;6.90;99.90;;;;;;5069156;28;20197;-87
2024/01/05 01:17:24;;;;;;;12.37;6.13;;;6.90;99.90;;;;;;5099977;28;20178;-88
2024/01/05 01:19:50;;;;;;;16.83;6.00;;;6.80;99.90;;;;;;5081331;28;20584;-88
2024/01/05 01:22:16;;;;;;;12.47;6.00;;;6.90;99.90;;;;;;5082698;28;20177;-88
2024/01/05 01:24:42;;;;;;;19.13;5.90;;;7.00;99.90;;;;;;5064838;28;20177;-88
2024/01/05 01:27:07;;;;;;;16.50;5.77;;;6.90;99.90;;;;;;5081260;28;20173;-88
2024/01/05 01:29:34;;;;;;;14.83;5.83;;;6.90;99.90;;;;;;5080902;28;20278;-88
2024/01/05 01:32:00;;;;;;;13.53;6.37;;;7.00;99.90;;;;;;5081163;28;20174;-88
2024/01/05 01:34:26;;;;;;;18.93;6.50;;;6.90;99.90;;;;;;5080985;28;20186;-87
2024/01/05 01:36:53;;;;;;;13.00;5.40;;;7.00;99.90;;;;;;5044960;28;20190;-88
2024/01/05 01:39:18;;;;;;;16.53;5.90;;;6.80;99.90;;;;;;5062037;28;20244;-88
2024/01/05 01:41:44;;;;;;;17.57;6.30;;;6.80;99.90;;;;;;5061932;28;20175;-87
2024/01/05 01:44:10;;;;;;;18.30;6.87;;;6.80;99.90;;;;;;5095785;28;20217;-88
2024/01/05 01:46:36;;;;;;;9.47;5.53;;;6.90;99.90;;;;;;5103721;28;20200;-88
2024/01/05 01:49:07;;;;;;;14.87;6.30;;;7.00;99.90;;;;;;5082245;28;20216;-88
2024/01/05 01:51:35;;;;;;;14.40;6.13;;;7.00;99.90;;;;;;5066264;28;20694;-88
2024/01/05 01:54:06;;;;;;;10.90;5.60;;;6.90;99.90;;;;;;5100516;28;20177;-88
2024/01/05 01:56:33;;;;;;;18.13;6.33;;;6.90;99.90;;;;;;5082217;28;20175;-88
2024/01/05 01:59:00;;;;;;;15.53;6.03;;;7.10;99.90;;;;;;5082385;28;20293;-88
2024/01/05 02:01:27;;;;;;;10.40;5.80;;;6.90;99.90;;;;;;5081960;28;20180;-88
2024/01/05 02:03:53;;;;;;;15.23;5.53;;;7.00;99.90;;;;;;5080273;28;20286;-87
2024/01/05 02:06:20;;;;;;;15.47;5.23;;;6.90;99.90;;;;;;5100213;28;20182;-88
2024/01/05 02:08:47;;;;;;;11.97;5.77;;;7.00;99.90;;;;;;5082044;28;20280;-88
2024/01/05 02:11:13;;;;;;;8.93;5.43;;;6.90;99.90;;;;;;5081259;28;20209;-87
2024/01/05 02:13:40;;;;;;;15.97;5.50;;;7.10;99.90;;;;;;5065189;28;20177;-88
2024/01/05 02:16:05;;;;;;;14.07;6.10;;;7.10;99.90;;;;;;5099842;28;20711;-87
2024/01/05 02:18:31;;;;;;;14.70;6.20;;;7.00;99.90;;;;;;5080878;28;20287;-88
2024/01/05 02:21:00;;;;;;;22.03;6.67;;;7.10;99.90;;;;;;5073795;28;20189;-88
2024/01/05 02:23:27;;;;;;;12.47;6.13;;;6.90;99.90;;;;;;5060310;28;20206;-88
2024/01/05 02:25:55;;;;;;;12.90;5.90;;;6.90;99.90;;;;;;5059949;28;20185;-88
2024/01/05 02:28:21;;;;;;;12.20;5.43;;;6.80;99.90;;;;;;5072284;28;20284;-88
2024/01/05 02:30:47;;;;;;;14.23;5.70;;;6.90;99.90;;;;;;5098160;28;20654;-88
2024/01/05 02:33:14;;;;;;;13.93;5.63;;;6.80;99.90;;;;;;5080094;28;20178;-87
2024/01/05 02:35:40;;;;;;;14.53;5.77;;;6.70;99.90;;;;;;5079184;28;20177;-88
2024/01/05 02:38:06;;;;;;;11.90;5.97;;;6.80;99.90;;;;;;5080464;28;20197;-87
2024/01/05 02:40:32;;;;;;;8.90;4.93;;;6.60;99.90;;;;;;5079727;28;20257;-88
2024/01/05 02:42:58;;;;;;;11.20;4.83;;;6.60;99.90;;;;;;5079978;28;20209;-88
2024/01/05 02:45:24;;;;;;;11.93;5.50;;;6.70;99.90;;;;;;5079553;28;20178;-88
2024/01/05 02:47:52;;;;;;;11.67;5.17;;;6.60;99.90;;;;;;5080728;28;20196;-89
2024/01/05 02:50:19;;;;;;;14.83;5.53;;;6.60;99.90;;;;;;5080019;28;20169;-88
2024/01/05 02:52:47;;;;;;;12.13;5.50;;;6.50;99.90;;;;;;5066488;28;20174;-88
2024/01/05 02:55:13;;;;;;;7.83;5.43;;;6.40;99.90;;;;;;5059931;28;20182;-88
2024/01/05 02:57:39;;;;;;;12.73;5.23;;;6.40;99.90;;;;;;5060987;28;20639;-88
2024/01/05 03:00:06;;;;;;;9.13;4.87;;;6.50;99.90;;;;;;5059805;28;20185;-88
2024/01/05 03:02:31;;;;;;;14.87;5.97;;;6.30;99.90;;;;;;5061399;28;20530;-88
2024/01/05 03:04:58;;;;;;;12.73;5.60;;;6.30;99.90;;;;;;5061361;28;20202;-88
2024/01/05 03:07:23;;;;;;;9.73;5.30;;;6.40;99.90;;;;;;5077921;28;20206;-88
2024/01/05 03:09:50;;;;;;;13.63;5.00;;;6.30;99.90;;;;;;5059738;28;20190;-88
2024/01/05 03:12:17;;;;;;;12.00;5.53;;;6.20;99.90;;;;;;5059631;28;20248;-89
2024/01/05 03:14:43;;;;;;;7.53;4.97;;;6.20;99.90;;;;;;5077172;28;20178;-88
2024/01/05 03:17:09;;;;;;;10.07;5.53;;;6.40;99.90;;;;;;5059047;28;20178;-87
2024/01/05 03:19:35;;;;;;;14.53;5.50;;;6.40;99.90;;;;;;5060516;28;20198;-87
2024/01/05 03:22:02;;;;;;;9.60;5.70;;;6.40;99.90;;;;;;5060006;28;20754;-86
2024/01/05 03:24:28;;;;;;;9.43;5.53;;;6.20;99.90;;;;;;5059426;28;20201;-88
2024/01/05 03:26:53;;;;;;;13.37;5.50;;;6.30;99.90;;;;;;5059323;28;20198;-87
2024/01/05 03:29:19;;;;;;;14.23;5.60;;;6.20;99.90;;;;;;5059570;28;20571;-86
2024/01/05 03:31:45;;;;;;;15.20;4.80;;;6.30;99.90;;;;;;5075436;28;20545;-86
2024/01/05 03:34:11;;;;;;;16.97;5.40;;;6.30;99.90;;;;;;5097268;28;20178;-87
2024/01/05 03:36:37;;;;;;;10.37;5.43;;;6.20;99.90;;;;;;5079692;28;20181;-87
2024/01/05 03:39:03;;;;;;;14.43;4.80;;;6.20;99.90;;;;;;5078826;28;20284;-87
2024/01/05 03:41:29;;;;;;;12.00;5.97;;;6.20;99.90;;;;;;5079561;28;20185;-87
2024/01/05 03:43:56;;;;;;;8.97;5.63;;;6.30;99.90;;;;;;5096353;28;20205;-87
2024/01/05 03:46:22;;;;;;;10.33;5.57;;;6.20;99.90;;;;;;5097937;28;20237;-87
2024/01/05 03:48:47;;;;;;;10.60;5.87;;;6.10;99.90;;;;;;5079881;28;20212;-87
2024/01/05 03:51:13;;;;;;;15.30;5.97;;;6.30;99.90;;;;;;5079154;28;20647;-87
2024/01/05 03:53:38;;;;;;;12.93;5.83;;;6.10;99.90;;;;;;5079558;28;20269;-87
2024/01/05 03:56:05;;;;;;;9.20;5.13;;;6.10;99.90;;;;;;5080024;28;20223;-86
2024/01/05 03:58:30;;;;;;;14.33;5.90;;;6.10;99.90;;;;;;5079582;28;20591;-87
2024/01/05 04:00:56;;;;;;;8.17;5.03;;;6.30;99.90;;;;;;5076045;28;20184;-87
2024/01/05 04:03:22;;;;;;;9.20;5.77;;;6.30;99.90;;;;;;5059946;28;20255;-87
2024/01/05 04:05:48;;;;;;;10.80;5.70;;;6.40;99.90;;;;;;5059540;28;20174;-87
2024/01/05 04:08:13;;;;;;;14.27;5.23;;;6.40;99.90;;;;;;5058335;28;20217;-87
2024/01/05 04:10:39;;;;;;;10.27;5.37;;;6.40;99.90;;;;;;5075091;28;20170;-87
2024/01/05 04:13:05;;;;;;;12.73;5.57;;;6.40;99.90;;;;;;5078936;28;20182;-87
2024/01/05 04:15:35;;;;;;;14.70;6.27;;;6.50;99.90;;;;;;5079579;28;20181;-87
2024/01/05 04:18:01;;;;;;;8.30;5.33;;;6.50;99.90;;;;;;5077896;28;20198;-86
2024/01/05 04:20:26;;;;;;;7.90;5.70;;;6.60;99.90;;;;;;5079127;28;20215;-87
2024/01/05 04:22:52;;;;;;;10.33;6.20;;;6.80;99.90;;;;;;5079660;28;20205;-86
2024/01/05 04:25:19;;;;;;;7.63;6.20;;;6.60;99.90;;;;;;5079724;28;20638;-86
2024/01/05 04:27:46;;;;;;;14.07;6.97;;;6.70;99.90;;;;;;5079013;28;20264;-86
2024/01/05 04:30:13;;;;;;;12.40;6.00;;;6.80;99.90;;;;;;5079137;28;20162;-87
2024/01/05 04:32:39;;;;;;;8.50;5.97;;;6.80;99.90;;;;;;5064579;28;20194;-86
2024/01/05 04:35:06;;;;;;;7.43;5.47;;;6.90;99.90;;;;;;5060026;28;20185;-87
2024/01/05 04:37:32;;;;;;;12.77;6.27;;;6.90;99.90;;;;;;5044529;28;20647;-86
2024/01/05 04:39:58;;;;;;;10.80;5.90;;;7.10;99.90;;;;;;5062387;28;20197;-87
2024/01/05 04:42:26;;;;;;;10.67;5.60;;;7.10;99.90;;;;;;5062545;28;20178;-87
2024/01/05 04:44:52;;;;;;;18.13;5.83;;;7.10;99.90;;;;;;5063931;28;20174;-87
2024/01/05 04:47:18;;;;;;;8.47;6.17;;;7.30;99.90;;;;;;5063647;28;20243;-87
2024/01/05 04:49:44;;;;;;;10.50;6.23;;;7.30;99.90;;;;;;5080877;28;20228;-87
2024/01/05 04:52:10;;;;;;;9.50;5.63;;;7.30;99.90;;;;;;5082587;28;20173;-87
2024/01/05 04:54:36;;;;;;;12.70;5.80;;;7.30;99.90;;;;;;5082649;28;20184;-87
2024/01/05 04:57:01;;;;;;;8.73;5.67;;;7.20;99.90;;;;;;5082726;28;20177;-87
2024/01/05 04:59:27;;;;;;;8.83;4.97;;;7.20;99.90;;;;;;5065259;28;20560;-87
2024/01/05 05:01:53;;;;;;;8.37;5.20;;;7.40;99.90;;;;;;5062749;28;20182;-87
2024/01/05 05:04:19;;;;;;;10.60;5.70;;;7.40;99.90;;;;;;5045826;28;20205;-88
2024/01/05 05:06:44;;;;;;;13.23;5.57;;;7.40;99.90;;;;;;5062592;28;20174;-87
2024/01/05 05:09:11;;;;;;;10.90;6.03;;;7.50;99.90;;;;;;5061060;28;20189;-87
2024/01/05 05:11:39;;;;;;;13.23;5.30;;;7.40;99.90;;;;;;5060420;28;20635;-88
2024/01/05 05:14:05;;;;;;;9.27;5.73;;;7.40;99.90;;;;;;5061917;28;20193;-88
2024/01/05 05:16:32;;;;;;;12.80;6.30;;;7.60;99.90;;;;;;5063423;28;20190;-89
2024/01/05 05:18:57;;;;;;;9.47;5.70;;;7.60;99.90;;;;;;5064086;28;20197;-88
2024/01/05 05:21:25;;;;;;;10.10;5.80;;;7.60;99.90;;;;;;5065002;28;20174;-88
2024/01/05 05:23:51;;;;;;;6.77;4.97;;;7.60;99.90;;;;;;5064636;28;20205;-88
2024/01/05 05:26:16;;;;;;;10.00;5.60;;;7.80;99.90;;;;;;5046899;28;20185;-85
2024/01/05 05:28:42;;;;;;;10.63;5.27;;;7.60;99.90;;;;;;5073363;28;20189;-86
2024/01/05 05:31:08;;;;;;;10.80;5.73;;;7.60;99.90;;;;;;5084027;28;20175;-87
2024/01/05 05:33:33;;;;;;;10.97;5.40;;;7.60;99.90;;;;;;5084701;28;20177;-87
2024/01/05 05:35:59;;;;;;;9.20;5.77;;;7.80;99.90;;;;;;5051172;28;20234;-86
2024/01/05 05:38:25;;;;;;;11.30;5.43;;;7.70;99.90;;;;;;5088954;28;20201;-85
2024/01/05 05:40:51;;;;;;;8.60;5.40;;;7.70;99.90;;;;;;5104844;28;20203;-87
2024/01/05 05:43:16;;;;;;;9.83;5.20;;;7.90;99.90;;;;;;5075681;28;20202;-87
2024/01/05 05:45:42;;;;;;;10.03;5.03;;;7.90;99.90;;;;;;5051336;28;20245;-87
2024/01/05 05:48:08;;;;;;;9.00;5.23;;;7.90;99.90;;;;;;5069929;28;20196;-87
2024/01/05 05:50:33;;;;;;;16.07;6.23;;;7.90;99.90;;;;;;5069754;28;20173;-87
2024/01/05 05:52:59;;;;;;;12.53;4.83;;;7.90;99.90;;;;;;5069064;28;20634;-87
2024/01/05 05:55:25;;;;;;;10.40;5.20;;;7.70;99.90;;;;;;5053393;28;20266;-86
2024/01/05 05:57:50;;;;;;;8.53;4.73;;;7.70;99.90;;;;;;5072170;28;20585;-87
2024/01/05 06:00:16;;;;;;;10.10;5.10;;;7.60;99.90;;;;;;5062907;28;20216;-87
2024/01/05 06:02:42;;;;;;;10.27;5.10;;;7.40;99.90;;;;;;5062925;28;20209;-87
2024/01/05 06:05:08;;;;;;;7.57;4.50;;;7.40;99.90;;;;;;5079583;28;20757;-87
2024/01/05 06:07:33;;;;;;;8.07;4.73;;;7.30;99.90;;;;;;5061959;28;20174;-87
2024/01/05 06:09:59;;;;;;;10.87;4.87;;;7.30;99.90;;;;;;5062676;28;20174;-88
2024/01/05 06:12:25;;;;;;;7.83;5.03;;;7.20;99.90;;;;;;5062149;28;20174;-88
2024/01/05 06:14:51;;;;;;;9.00;5.03;;;7.10;99.90;;;;;;5061760;28;20241;-88
2024/01/05 06:17:18;;;;;;;10.20;5.07;;;7.20;99.90;;;;;;5061783;28;20178;-87
2024/01/05 06:19:44;;;;;;;7.77;4.97;;;7.10;99.90;;;;;;5072485;28;20205;-87
2024/01/05 06:22:10;;;;;;;9.10;5.07;;;7.20;99.90;;;;;;5081395;28;20170;-87
2024/01/05 06:24:35;;;;;;;7.60;4.63;;;7.10;99.90;;;;;;5072855;28;20194;-87
2024/01/05 06:27:02;;;;;;;6.07;5.07;;;7.10;99.90;;;;;;5080079;28;20659;-87
2024/01/05 06:29:27;;;;;;;6.23;4.40;;;7.10;99.90;;;;;;5044420;28;20251;-87
2024/01/05 06:31:53;;;;;;;8.23;4.87;;;7.10;99.90;;;;;;5079858;28;20595;-88
2024/01/05 06:34:19;;;;;;;8.77;5.03;;;7.10;99.90;;;;;;5061158;28;20178;-88
2024/01/05 06:36:44;;;;;;;9.73;4.27;;;7.20;99.90;;;;;;5061085;28;20182;-87
2024/01/05 06:39:11;;;;;;;10.77;5.33;;;7.40;99.90;;;;;;5062174;28;20216;-87
2024/01/05 06:41:36;;;;;;;5.00;4.63;;;7.40;99.90;;;;;;5060903;28;20558;-88
2024/01/05 06:44:02;;;;;;;7.13;5.03;;;7.50;99.90;;;;;;5061873;28;20201;-88
2024/01/05 06:46:28;;;;;;;5.33;4.80;;;7.50;99.90;;;;;;5080600;28;20173;-88
2024/01/05 06:48:56;;;;;;;15.00;10.53;;;7.60;99.90;;;;;;5062754;28;20218;-88
2024/01/05 06:51:29;;;;;;;9.13;4.93;;;7.60;99.90;;;;;;5061337;28;20170;-90
2024/01/05 06:53:56;;;;;;;7.17;4.60;;;7.80;99.90;;;;;;5080397;28;20600;-87
2024/01/05 06:56:23;;;;;;;10.73;4.73;;;7.80;99.90;;;;;;5079396;28;20169;-88
2024/01/05 06:58:50;;;;;;;5.93;4.60;;;7.70;99.90;;;;;;5061243;28;20202;-88
2024/01/05 07:01:17;;;;;;;6.00;4.70;;;7.80;99.90;;;;;;5061791;28;20194;-88
2024/01/05 07:03:43;;;;;;;6.63;4.80;;;7.80;99.90;;;;;;5078194;28;20692;-88
2024/01/05 07:06:11;;;;;;;7.87;4.47;;;7.90;99.90;;;;;;5076483;28;20173;-87
2024/01/05 07:08:37;;;;;;;5.93;4.43;;;7.80;99.90;;;;;;5080349;28;20197;-88
2024/01/05 07:11:02;;;;;;;8.27;4.20;;;7.80;99.90;;;;;;5096412;28;20538;-87
2024/01/05 07:13:28;;;;;;;10.13;4.47;;;7.80;99.90;;;;;;5080333;28;20173;-88
2024/01/05 07:15:55;;;;;;;4.50;4.17;;;7.90;99.90;;;;;;5079571;28;20328;-88
2024/01/05 07:18:21;;;;;;;4.83;4.43;;;7.90;99.90;;;;;;5079462;28;20247;-88
2024/01/05 07:20:46;;;;;;;4.50;4.10;;;8.10;99.90;;;;;;5078345;28;20181;-88
2024/01/05 07:23:12;;;;;;;4.03;3.80;;;8.10;99.90;;;;;;5079940;28;20307;-88
2024/01/05 07:25:38;;;;;;;4.37;3.83;;;8.10;99.90;;;;;;5079090;28;20181;-88
2024/01/05 07:28:04;;;;;;;4.00;3.80;;;8.10;99.90;;;;;;5097665;28;20182;-88
2024/01/05 07:30:31;;;;;;;5.97;4.10;;;8.10;99.90;;;;;;5079981;28;20185;-89
2024/01/05 07:32:57;;;;;;;4.20;3.90;;;8.10;99.90;;;;;;5063526;28;20578;-88
2024/01/05 07:35:22;;;;;;;5.40;4.23;;;8.10;99.90;;;;;;5065939;28;20239;-88
2024/01/05 07:37:48;;;;;;;3.87;3.67;;;8.30;99.90;;;;;;5059970;28;20204;-88
2024/01/05 07:40:13;;;;;;;4.40;3.97;;;8.20;99.90;;;;;;5059434;28;20327;-88
2024/01/05 07:42:40;;;;;;;5.00;4.30;;;8.20;1.00;;;;;;5059676;28;20212;-87
2024/01/05 07:45:06;;;;;;;4.90;4.30;;;8.20;1.00;;;;;;5043418;28;20268;-87
2024/01/05 07:47:32;;;;;;;4.20;3.80;;;8.20;1.00;;;;;;5044154;28;20175;-89
2024/01/05 07:49:58;;;;;;;8.07;4.13;;;8.20;1.00;;;;;;5066917;28;20237;-88
2024/01/05 07:52:24;;;;;;;4.40;4.00;;;8.40;1.00;;;;;;5078775;28;20170;-88
2024/01/05 07:54:50;;;;;;;8.00;4.07;;;8.40;99.90;;;;;;5061974;28;20231;-88
2024/01/05 07:57:16;;;;;;;6.77;3.53;;;8.50;99.90;;;;;;5062404;28;20200;-89
2024/01/05 07:59:41;;;;;;;4.33;3.63;;;8.40;99.90;;;;;;5059444;28;20276;-88
2024/01/05 08:02:07;;;;;;;7.23;4.00;;;8.20;99.90;;;;;;5060665;28;20178;-89
2024/01/05 08:04:35;;;;;;;10.03;3.67;;;8.50;99.90;;;;;;5060925;28;20202;-88
2024/01/05 08:07:02;;;;;;;4.87;3.50;;;8.60;99.90;;;;;;5060932;28;20643;-88
2024/01/05 08:09:27;;;;;;;7.37;3.37;;;8.60;99.90;;;;;;5043838;28;20204;-88
2024/01/05 08:11:53;;;;;;;4.63;3.80;;;8.70;99.90;;;;;;5063324;28;20170;-88
2024/01/05 08:14:19;;;;;;;4.43;3.70;;;8.60;99.90;;;;;;5073845;28;20174;-89
2024/01/05 08:16:44;;;;;;;4.53;3.60;;;8.80;99.90;;;;;;5080704;28;20206;-88
2024/01/05 08:19:10;;;;;;;4.10;3.70;;;8.60;99.90;;;;;;5070904;28;20193;-88
2024/01/05 08:21:37;;;;;;;3.87;3.57;;;8.70;99.90;;;;;;5067090;28;20227;-88
2024/01/05 08:24:04;;;;;;;4.23;3.87;;;8.70;97.40;;;;;;5085681;28;20735;-89
2024/01/05 08:26:29;;;;;;;6.07;3.80;;;8.70;99.90;;;;;;5068533;28;20269;-88
2024/01/05 08:28:55;;;;;;;3.83;3.53;;;8.70;92.00;;;;;;5084594;28;20193;-88
2024/01/05 08:31:47;;;;;;;3.70;3.40;;;8.70;91.40;;;;;;5086855;28;20200;-88
2024/01/05 08:34:15;;;;;;;3.63;3.43;;;8.80;70.50;;;;;;5113290;28;20219;-89
2024/01/05 08:36:43;;;;;;;3.63;3.30;;;8.90;48.30;;;;;;5068172;28;20185;-89
2024/01/05 08:39:10;;;;;;;3.40;3.10;;;9.10;36.50;;;;;;5063997;28;20205;-89
2024/01/05 08:41:36;;;;;;;4.13;3.47;;;9.10;1.00;;;;;;5048341;28;20748;-88
2024/01/05 08:44:01;;;;;;;3.57;3.27;;;9.20;1.00;;;;;;5066100;28;20225;-89
2024/01/05 08:46:33;;;;;;;3.50;3.20;;;9.40;1.00;;;;;;5065220;28;20210;-88
2024/01/05 08:49:05;;;;;;;3.03;2.80;;;9.40;1.00;;;;;;5092677;28;20198;-88
2024/01/05 08:51:52;;;;;;;3.20;3.00;;;9.40;1.00;;;;;;5095273;28;20190;-88
2024/01/05 08:55:02;;;;;;;3.67;3.40;;;9.40;1.00;;;;;;5090373;28;20173;-89
2024/01/05 08:57:27;;;;;;;4.47;4.17;;;9.50;1.00;;;;;;5011058;28;20214;-88
2024/01/05 08:59:54;;;;;;;3.20;3.00;;;9.30;1.00;;;;;;5024629;28;20191;-89
2024/01/05 09:02:22;;;;;;;3.93;3.13;;;9.30;1.00;;;;;;5061537;28;20559;-87
2024/01/05 09:05:00;;;;;;;3.33;3.13;;;9.30;1.00;;;;;;5087914;28;20250;-88
2024/01/05 09:08:07;;;;;;;3.37;3.17;;;9.40;1.00;;;;;;5080613;28;20185;-89
2024/01/05 09:10:33;;;;;;;3.33;3.23;;;9.30;1.00;;;;;;5103180;28;20235;-89
2024/01/05 09:13:00;;;;;;;3.33;3.20;;;9.60;1.00;;;;;;5085531;28;20185;-89
2024/01/05 09:15:26;;;;;;;3.50;3.20;;;9.60;1.00;;;;;;5083063;28;20374;-89
2024/01/05 09:17:51;;;;;;;2.80;2.70;;;9.60;1.00;;;;;;5082894;28;20197;-88
2024/01/05 09:20:17;;;;;;;2.80;2.60;;;9.80;1.00;;;;;;5082729;28;20264;-88
2024/01/05 09:22:44;;;;;;;3.63;3.47;;;10.10;1.00;;;;;;5081442;28;20193;-88
2024/01/05 09:25:10;;;;;;;2.90;2.80;;;10.10;1.00;;;;;;5081888;28;20223;-89
2024/01/05 09:27:36;;;;;;;3.30;3.10;;;9.90;1.00;;;;;;5081456;28;20181;-89
2024/01/05 09:30:03;;;;;;;2.70;2.60;;;9.90;1.00;;;;;;5081938;28;20193;-89
2024/01/05 09:32:30;;;;;;;2.90;2.70;;;10.00;1.00;;;;;;5081252;28;20174;-89
2024/01/05 09:34:56;;;;;;;2.77;2.57;;;10.20;1.00;;;;;;5082306;28;20177;-89
2024/01/05 09:37:22;;;;;;;2.70;2.60;;;10.30;1.00;;;;;;5079218;28;20178;-89
2024/01/05 09:39:48;;;;;;;2.70;2.50;;;10.50;1.00;;;;;;5080905;28;20215;-89
2024/01/05 09:42:14;;;;;;;2.70;2.60;;;10.40;1.00;;;;;;5081292;28;20253;-89
2024/01/05 09:44:42;;;;;;;3.10;2.37;;;10.30;1.00;;;;;;5063986;28;20551;-89
2024/01/05 09:47:08;;;;;;;2.93;2.80;;;10.40;1.00;;;;;;5081841;28;20177;-89
2024/01/05 09:49:39;;;;;;;3.00;2.70;;;10.30;1.00;;;;;;5080752;28;20217;-89
2024/01/05 09:52:05;;;;;;;2.60;2.50;;;10.30;1.00;;;;;;5067289;28;20679;-88
2024/01/05 09:54:31;;;;;;;3.73;3.30;;;10.30;1.00;;;;;;5085875;28;20641;-89
2024/01/05 09:56:58;;;;;;;2.97;2.87;;;10.10;1.00;;;;;;5065414;28;20178;-88
2024/01/05 09:59:26;;;;;;;2.90;2.70;;;10.00;1.00;;;;;;5080476;28;20215;-89
2024/01/05 10:01:53;;;;;;;3.40;2.83;;;10.00;1.00;;;;;;5082469;28;20191;-88
2024/01/05 10:04:20;;;;;;;3.07;2.80;;;10.00;1.00;;;;;;5082702;28;20201;-87
2024/01/05 10:06:45;;;;;;;2.83;2.60;;;10.30;1.00;;;;;;5081029;28;20213;-88
2024/01/05 10:09:11;;;;;;;2.90;2.70;;;10.20;1.00;;;;;;5081404;28;20197;-88
2024/01/05 10:11:46;;;;;;;3.00;2.80;;;10.20;1.00;;;;;;5080670;28;20177;-88
2024/01/05 10:14:13;;;;;;;2.80;2.70;;;10.40;1.00;;;;;;5069034;28;20177;-87
2024/01/05 10:16:39;;;;;;;2.90;2.40;;;10.50;1.00;;;;;;5080369;28;20226;-88
2024/01/05 10:19:30;;;;;;;2.80;2.70;;;10.30;1.00;;;;;;5079777;28;20197;-90
2024/01/05 10:22:13;;;;;;;3.43;3.13;;;10.30;1.00;;;;;;5063930;28;20181;-89
2024/01/05 10:24:42;;;;;;;3.10;2.90;;;10.20;1.00;;;;;;5061782;28;20251;-90
2024/01/05 10:27:12;;;;;;;3.00;2.80;;;10.10;1.00;;;;;;5070898;28;20174;-87
2024/01/05 10:29:42;;;;;;;3.07;2.87;;;10.00;1.00;;;;;;5068008;28;20193;-90
2024/01/05 10:32:19;;;;;;;3.17;2.97;;;10.00;1.00;;;;;;5064707;28;20257;-89
2024/01/05 10:34:47;;;;;;;2.93;2.83;;;9.90;1.00;;;;;;5083585;28;20177;-89
2024/01/05 10:37:17;;;;;;;3.53;3.33;;;9.90;1.00;;;;;;5083918;28;20180;-89
2024/01/05 10:39:58;;;;;;;3.40;3.20;;;9.80;1.00;;;;;;5084794;28;20216;-89
2024/01/05 10:42:26;;;;;;;3.73;3.50;;;9.80;1.00;;;;;;5083388;28;20184;-89
2024/01/05 10:44:54;;;;;;;4.90;4.50;;;9.70;1.00;;;;;;5084830;28;20228;-89
2024/01/05 10:47:21;;;;;;;5.53;5.03;;;9.70;1.00;;;;;;5088314;28;20174;-90
2024/01/05 10:49:55;;;;;;;4.57;4.17;;;9.70;1.00;;;;;;5075709;28;20244;-89
2024/01/05 10:52:24;;;;;;;4.10;3.80;;;9.70;1.00;;;;;;5088991;28;20204;-88
2024/01/05 10:54:52;;;;;;;3.80;2.80;;;9.80;1.00;;;;;;5090135;28;20173;-90
2024/01/05 10:57:19;;;;;;;3.73;3.43;;;9.90;1.00;;;;;;5079962;28;20218;-89
2024/01/05 10:59:49;;;;;;;3.30;3.00;;;10.10;1.00;;;;;;5074581;28;20194;-89
2024/01/05 11:02:35;;;;;;;2.90;2.70;;;10.20;1.00;;;;;;5103309;28;20201;-89
2024/01/05 11:05:08;;;;;;;2.90;2.70;;;10.20;1.00;;;;;;5075486;28;20204;-89
2024/01/05 11:07:35;;;;;;;3.50;2.80;;;10.20;1.00;;;;;;5065491;28;20260;-91
2024/01/05 11:10:18;;;;;;;3.63;3.33;;;10.20;1.00;;;;;;5061590;28;20189;-90
2024/01/05 11:13:06;;;;;;;3.20;3.00;;;10.40;1.00;;;;;;5064418;28;20227;-90
2024/01/05 11:16:11;;;;;;;3.10;2.80;;;10.20;1.00;;;;;;5060922;28;20174;-88
2024/01/05 11:19:04;;;;;;;4.50;2.80;;;10.30;1.00;;;;;;5061417;28;20504;-89
2024/01/05 11:21:40;;;;;;;2.77;2.53;;;10.40;1.00;;;;;;5079558;28;20201;-86
2024/01/05 11:24:06;;;;;;;3.13;2.77;;;10.90;1.00;;;;;;5096750;28;20181;-87
2024/01/05 11:26:35;;;;;;;2.60;2.50;;;10.90;1.00;;;;;;5079998;28;20174;-90
2024/01/05 11:29:01;;;;;;;3.20;3.00;;;10.80;1.00;;;;;;5081042;28;20202;-90
2024/01/05 11:31:46;;;;;;;3.00;2.80;;;10.90;1.00;;;;;;5081885;28;20260;-90
2024/01/05 11:34:32;;;;;;;3.20;2.87;;;10.60;1.00;;;;;;5083176;28;20170;-90
2024/01/05 11:36:58;;;;;;;3.03;2.67;;;10.40;1.00;;;;;;5081991;28;20520;-90
2024/01/05 11:40:00;;;;;;;3.37;3.03;;;10.10;1.00;;;;;;5081270;28;20209;-90
2024/01/05 11:42:30;;;;;;;3.60;3.10;;;10.00;1.00;;;;;;5048258;28;20198;-90
2024/01/05 11:45:00;;;;;;;3.67;3.37;;;9.90;1.00;;;;;;5078785;28;20248;-91
2024/01/05 11:47:59;;;;;;;3.33;3.13;;;9.80;1.00;;;;;;5085136;28;20246;-90
2024/01/05 11:50:30;;;;;;;3.10;2.80;;;10.10;1.00;;;;;;5028541;28;20234;-91
2024/01/05 11:53:15;;;;;;;3.10;3.00;;;10.20;1.00;;;;;;5082756;28;20560;-90
2024/01/05 11:55:52;;;;;;;3.07;2.87;;;10.20;1.00;;;;;;5095510;28;20181;-90
2024/01/05 11:58:27;;;;;;;3.07;2.93;;;10.20;1.00;;;;;;5077477;28;20200;-91
2024/01/05 12:00:58;;;;;;;3.23;3.00;;;10.10;1.00;;;;;;5067178;28;20177;-90
2024/01/05 12:03:25;;;;;;;3.00;2.80;;;10.00;1.00;;;;;;5064025;28;20210;-90
2024/01/05 12:05:54;;;;;;;4.53;4.23;;;9.90;1.00;;;;;;5066204;28;20537;-90
2024/01/05 12:08:21;;;;;;;2.90;2.80;;;9.90;1.00;;;;;;5065876;28;20284;-90
2024/01/05 12:10:57;;;;;;;3.40;3.20;;;9.80;1.00;;;;;;5067048;28;20224;-90
2024/01/05 12:13:26;;;;;;;3.30;3.10;;;9.80;1.00;;;;;;5066885;28;20178;-89
2024/01/05 12:15:58;;;;;;;4.87;4.20;;;9.80;1.00;;;;;;5064798;28;20187;-89
2024/01/05 12:18:27;;;;;;;4.17;3.80;;;9.80;1.00;;;;;;5063652;28;20194;-88
2024/01/05 12:21:03;;;;;;;4.00;3.70;;;9.70;1.00;;;;;;5065191;28;20282;-90
2024/01/05 12:23:33;;;;;;;4.30;3.90;;;9.70;1.00;;;;;;5067541;28;20193;-88
2024/01/05 12:26:06;;;;;;;9.10;8.60;;;9.50;1.00;;;;;;5064387;28;20174;-91
2024/01/05 12:28:37;;;;;;;4.00;3.63;;;9.50;1.00;;;;;;5064878;28;20255;-90
2024/01/05 12:31:04;;;;;;;3.40;3.20;;;9.50;1.00;;;;;;5065235;28;20178;-90
2024/01/05 12:33:33;;;;;;;3.97;3.60;;;9.50;1.00;;;;;;5064536;28;20170;-90
2024/01/05 12:35:59;;;;;;;4.60;3.10;;;9.50;1.00;;;;;;5086839;28;20192;-90
2024/01/05 12:38:26;;;;;;;3.67;3.40;;;9.40;1.00;;;;;;5084176;28;20193;-90
2024/01/05 12:41:04;;;;;;;3.53;3.20;;;9.40;1.00;;;;;;5080626;28;20189;-90
2024/01/05 12:43:29;;;;;;;3.37;3.17;;;9.40;1.00;;;;;;5067490;28;20334;-90
2024/01/05 12:45:55;;;;;;;3.40;3.10;;;9.40;1.00;;;;;;5074580;28;20322;-90
2024/01/05 12:48:27;;;;;;;3.80;3.50;;;9.40;1.00;;;;;;5065928;28;20201;-89
2024/01/05 12:51:07;;;;;;;5.37;3.80;;;9.30;1.00;;;;;;5073536;28;20181;-90
2024/01/05 12:53:33;;;;;;;5.97;5.40;;;9.30;1.00;;;;;;5074213;28;20188;-91
2024/01/05 12:56:20;;;;;;;3.73;3.47;;;9.20;1.00;;;;;;5067789;28;20181;-90
2024/01/05 12:58:46;;;;;;;4.63;4.33;;;9.20;1.00;;;;;;5075196;28;20206;-89
2024/01/05 13:01:18;;;;;;;5.27;4.13;;;9.20;1.00;;;;;;5072867;28;20181;-90